createdAt,value
2022-08-23T00:01:21.793Z,97032.84
2022-08-23T00:03:51.096Z,97029.31
2022-08-23T00:06:17.647Z,97031.00
2022-08-23T00:08:48.426Z,97028.97
2022-08-23T00:11:34.027Z,97029.28
2022-08-23T00:14:01.886Z,97021.13
2022-08-23T00:16:28.411Z,97017.50
2022-08-23T00:18:55.033Z,97028.41
2022-08-23T00:21:21.669Z,97022.84
2022-08-23T00:23:48.160Z,97034.19
2022-08-23T00:26:14.781Z,97026.22
2022-08-23T00:28:41.271Z,97032.31
2022-08-23T00:31:07.857Z,97034.72
2022-08-23T00:33:34.320Z,97033.41
2022-08-23T00:36:00.852Z,97033.66
2022-08-23T00:38:34.367Z,97027.78
2022-08-23T00:41:01.600Z,97031.44
2022-08-23T00:43:48.771Z,97031.53
2022-08-23T00:46:33.902Z,97037.38
2022-08-23T00:49:00.829Z,97029.78
2022-08-23T00:51:28.489Z,97032.28
2022-08-23T00:53:56.158Z,97033.50
2022-08-23T00:56:22.889Z,97019.63
2022-08-23T00:58:49.599Z,97024.84
2022-08-23T01:01:16.546Z,97023.28
2022-08-23T01:03:45.703Z,97018.41
2022-08-23T01:06:24.476Z,97028.06
2022-08-23T01:08:55.896Z,97025.72
2022-08-23T01:11:25.922Z,97021.09
2022-08-23T01:13:57.446Z,97019.97
2022-08-23T01:16:35.938Z,97023.06
2022-08-23T01:19:02.515Z,97024.09
2022-08-23T01:21:33.229Z,97028.50
2022-08-23T01:24:03.408Z,97028.19
2022-08-23T01:26:32.062Z,97028.00
2022-08-23T01:28:58.486Z,97036.09
2022-08-23T01:31:25.225Z,97029.00
2022-08-23T01:33:54.716Z,97029.38
2022-08-23T01:36:22.107Z,97034.34
2022-08-23T01:38:48.836Z,97032.31
2022-08-23T01:41:15.267Z,97029.63
2022-08-23T01:43:41.795Z,97038.66
2022-08-23T01:46:19.599Z,97028.00
2022-08-23T01:48:46.801Z,97024.47
2022-08-23T01:51:14.059Z,97034.75
2022-08-23T01:53:41.151Z,97037.59
2022-08-23T01:56:08.190Z,97035.09
2022-08-23T01:58:35.190Z,97036.72
2022-08-23T02:01:02.145Z,97036.91
2022-08-23T02:03:29.196Z,97028.69
2022-08-23T02:05:56.060Z,97033.81
2022-08-23T02:08:41.156Z,97033.22
2022-08-23T02:11:12.776Z,97038.34
2022-08-23T02:13:39.257Z,97030.50
2022-08-23T02:16:05.854Z,97028.75
2022-08-23T02:18:32.311Z,97040.69
2022-08-23T02:20:59.032Z,97042.53
2022-08-23T02:23:25.491Z,97042.94
2022-08-23T02:25:52.049Z,97040.09
2022-08-23T02:28:19.218Z,97036.94
2022-08-23T02:30:45.822Z,97035.41
2022-08-23T02:33:13.517Z,97042.47
2022-08-23T02:35:42.517Z,97044.47
2022-08-23T02:38:10.238Z,97049.28
2022-08-23T02:40:37.297Z,97048.88
2022-08-23T02:43:04.496Z,97046.47
2022-08-23T02:45:31.198Z,97051.22
2022-08-23T02:47:57.894Z,97053.13
2022-08-23T02:50:24.576Z,97048.91
2022-08-23T02:52:51.214Z,97047.38
2022-08-23T02:55:17.834Z,97042.97
2022-08-23T02:57:44.662Z,97045.28
2022-08-23T03:00:11.734Z,97046.75
2022-08-23T03:02:38.515Z,97047.78
2022-08-23T03:05:06.300Z,97053.69
2022-08-23T03:07:33.127Z,97049.63
2022-08-23T03:10:01.393Z,97053.34
2022-08-23T03:12:28.480Z,97048.06
2022-08-23T03:14:55.117Z,97054.25
2022-08-23T03:17:21.811Z,97054.41
2022-08-23T03:19:48.625Z,97062.38
2022-08-23T03:22:15.532Z,97055.50
2022-08-23T03:24:42.417Z,97052.63
2022-08-23T03:27:09.178Z,97047.75
2022-08-23T03:29:35.784Z,97049.38
2022-08-23T03:32:02.983Z,97056.81
2022-08-23T03:34:29.562Z,97044.84
2022-08-23T03:36:56.313Z,97054.88
2022-08-23T03:39:23.019Z,97052.47
2022-08-23T03:41:49.427Z,97050.91
2022-08-23T03:44:15.922Z,97049.38
2022-08-23T03:46:42.561Z,97054.91
2022-08-23T03:49:09.154Z,97049.44
2022-08-23T03:51:35.590Z,97055.56
2022-08-23T03:54:02.143Z,97056.28
2022-08-23T03:56:29.890Z,97054.59
2022-08-23T03:58:57.028Z,97061.00
2022-08-23T04:01:28.359Z,97063.69
2022-08-23T04:03:55.383Z,97063.50
2022-08-23T04:06:21.802Z,97064.25
2022-08-23T04:08:48.285Z,97071.56
2022-08-23T04:11:14.869Z,97070.44
2022-08-23T04:13:42.343Z,97066.94
2022-08-23T04:16:09.160Z,97072.66
2022-08-23T04:18:36.647Z,97076.13
2022-08-23T04:21:05.468Z,97073.41
2022-08-23T04:23:32.128Z,97072.06
2022-08-23T04:25:58.602Z,97078.59
2022-08-23T04:28:25.641Z,97075.03
2022-08-23T04:30:52.176Z,97078.16
2022-08-23T04:33:18.660Z,97080.66
2022-08-23T04:35:47.898Z,97083.72
2022-08-23T04:38:24.247Z,97085.34
2022-08-23T04:41:11.378Z,97093.75
2022-08-23T04:43:38.091Z,97096.63
2022-08-23T04:46:05.649Z,97104.22
2022-08-23T04:48:32.266Z,97112.28
2022-08-23T04:50:59.211Z,97106.38
2022-08-23T04:53:25.691Z,97108.00
2022-08-23T04:55:52.453Z,97111.69
2022-08-23T04:58:19.346Z,97113.16
2022-08-23T05:00:51.405Z,97118.91
2022-08-23T05:03:18.260Z,97116.69
2022-08-23T05:05:44.717Z,97122.38
2022-08-23T05:08:11.134Z,97116.84
2022-08-23T05:10:37.707Z,97117.00
2022-08-23T05:13:04.178Z,97125.00
2022-08-23T05:15:30.812Z,97124.00
2022-08-23T05:17:57.229Z,97119.72
2022-08-23T05:20:23.715Z,97124.22
2022-08-23T05:22:50.529Z,97118.31
2022-08-23T05:25:17.056Z,97120.53
2022-08-23T05:27:44.083Z,97125.00
2022-08-23T05:30:14.470Z,97127.81
2022-08-23T05:32:42.139Z,97133.47
2022-08-23T05:35:08.834Z,97130.06
2022-08-23T05:37:35.295Z,97139.63
2022-08-23T05:40:01.887Z,97135.97
2022-08-23T05:42:28.358Z,97137.91
2022-08-23T05:44:54.826Z,97140.34
2022-08-23T05:47:24.936Z,97144.13
2022-08-23T05:49:51.643Z,97140.69
2022-08-23T05:52:18.065Z,97142.25
2022-08-23T05:54:44.608Z,97138.69
2022-08-23T05:57:11.454Z,97147.50
2022-08-23T05:59:39.761Z,97154.44
2022-08-23T06:02:06.243Z,97150.28
2022-08-23T06:04:33.110Z,97154.81
2022-08-23T06:06:59.582Z,97161.69
2022-08-23T06:09:26.349Z,97154.56
2022-08-23T06:11:52.874Z,97151.09
2022-08-23T06:14:19.402Z,97156.97
2022-08-23T06:16:46.894Z,97161.63
2022-08-23T06:19:14.217Z,97169.91
2022-08-23T06:21:41.148Z,97163.16
2022-08-23T06:24:07.639Z,97167.09
2022-08-23T06:26:38.770Z,97167.38
2022-08-23T06:29:07.493Z,97173.50
2022-08-23T06:31:47.000Z,97172.38
2022-08-23T06:34:18.527Z,97163.00
2022-08-23T06:36:46.274Z,97168.88
2022-08-23T06:39:13.585Z,97172.13
2022-08-23T06:41:40.067Z,97176.44
2022-08-23T06:44:08.161Z,97164.59
2022-08-23T06:46:34.817Z,97172.53
2022-08-23T06:49:05.112Z,97165.78
2022-08-23T06:51:33.250Z,97168.69
2022-08-23T06:54:03.174Z,97170.19
2022-08-23T06:56:29.951Z,97164.91
2022-08-23T06:58:56.489Z,97161.47
2022-08-23T07:01:44.531Z,97164.94
2022-08-23T07:04:12.473Z,97173.38
2022-08-23T07:06:39.010Z,97178.81
2022-08-23T07:09:05.749Z,97174.00
2022-08-23T07:11:33.025Z,97185.69
2022-08-23T07:14:01.062Z,97181.81
2022-08-23T07:16:48.071Z,97173.22
2022-08-23T07:19:15.311Z,97177.34
2022-08-23T07:21:42.613Z,97180.19
2022-08-23T07:24:09.311Z,97181.09
2022-08-23T07:26:36.380Z,97188.84
2022-08-23T07:29:04.212Z,97187.03
2022-08-23T07:31:31.294Z,97189.59
2022-08-23T07:33:58.861Z,97183.16
2022-08-23T07:36:27.969Z,97188.00
2022-08-23T07:38:54.633Z,97189.13
2022-08-23T07:41:23.741Z,97191.81
2022-08-23T07:43:50.454Z,97187.25
2022-08-23T07:46:17.033Z,97194.06
2022-08-23T07:48:53.967Z,97186.84
2022-08-23T07:51:21.135Z,97189.97
2022-08-23T07:53:48.040Z,97191.91
2022-08-23T07:56:15.734Z,97204.84
2022-08-23T07:58:42.255Z,97195.69
2022-08-23T08:01:19.172Z,97201.94
2022-08-23T08:03:46.830Z,97199.00
2022-08-23T08:06:16.504Z,97202.22
2022-08-23T08:11:25.571Z,97199.78
2022-08-23T08:13:52.323Z,97210.84
2022-08-23T08:16:22.742Z,97209.78
2022-08-23T08:18:49.574Z,97210.63
2022-08-23T08:21:19.107Z,97215.16
2022-08-23T08:23:45.614Z,97211.16
2022-08-23T08:26:12.111Z,97212.78
2022-08-23T08:28:38.905Z,97215.16
2022-08-23T08:31:05.817Z,97215.72
2022-08-23T08:33:34.268Z,97207.81
2022-08-23T08:36:04.034Z,97210.41
2022-08-23T08:38:31.727Z,97199.66
2022-08-23T08:41:12.520Z,97201.22
2022-08-23T08:43:48.230Z,97194.97
2022-08-23T08:46:20.895Z,97205.13
2022-08-23T08:48:48.739Z,97197.97
2022-08-23T08:51:18.400Z,97205.34
2022-08-23T08:53:45.563Z,97202.59
2022-08-23T08:56:32.660Z,97203.50
2022-08-23T08:59:00.854Z,97207.69
2022-08-23T09:01:27.425Z,97203.19
2022-08-23T09:03:54.349Z,97208.66
2022-08-23T09:06:21.171Z,97197.53
2022-08-23T09:09:06.339Z,97197.34
2022-08-23T09:11:40.600Z,97198.53
2022-08-23T09:14:07.038Z,97198.34
2022-08-23T09:16:36.683Z,97195.19
2022-08-23T09:19:03.563Z,97201.75
2022-08-23T09:21:48.715Z,97199.97
2022-08-23T09:24:15.595Z,97202.06
2022-08-23T09:26:43.608Z,97205.72
2022-08-23T09:29:24.117Z,97199.91
2022-08-23T09:31:52.665Z,97197.41
2022-08-23T09:34:37.625Z,97197.13
2022-08-23T09:37:13.317Z,97200.50
2022-08-23T09:39:41.860Z,97209.19
2022-08-23T09:42:29.980Z,97211.81
2022-08-23T09:44:56.464Z,97199.16
2022-08-23T09:47:34.951Z,97195.75
2022-08-23T09:50:09.601Z,97196.28
2022-08-23T09:52:37.683Z,97192.47
2022-08-23T09:55:24.125Z,97186.25
2022-08-23T09:57:50.564Z,97192.03
2022-08-23T10:00:17.579Z,97187.66
2022-08-23T10:02:44.537Z,97189.38
2022-08-23T10:05:31.463Z,97180.44
2022-08-23T10:08:01.800Z,97185.16
2022-08-23T10:10:32.849Z,97193.59
2022-08-23T10:12:59.495Z,97185.81
2022-08-23T10:15:36.214Z,97189.88
2022-08-23T10:18:07.256Z,97185.50
2022-08-23T10:20:39.328Z,97183.78
2022-08-23T10:23:17.287Z,97179.75
2022-08-23T10:25:45.805Z,97181.31
2022-08-23T10:28:51.301Z,97186.22
2022-08-23T10:31:26.852Z,97185.00
2022-08-23T10:33:59.348Z,97178.72
2022-08-23T10:36:25.800Z,97187.84
2022-08-23T10:38:57.019Z,97173.53
2022-08-23T10:41:43.988Z,97163.59
2022-08-23T10:44:33.127Z,97167.09
2022-08-23T10:47:02.618Z,97170.44
2022-08-23T10:49:29.049Z,97176.75
2022-08-23T10:51:55.904Z,97172.63
2022-08-23T10:54:35.913Z,97170.09
2022-08-23T10:57:03.250Z,97168.13
2022-08-23T10:59:29.675Z,97172.28
2022-08-23T11:01:58.206Z,97166.31
2022-08-23T11:04:27.418Z,97166.97
2022-08-23T11:06:55.348Z,97171.63
2022-08-23T11:09:21.771Z,97166.31
2022-08-23T11:12:11.014Z,97167.72
2022-08-23T11:14:42.842Z,97158.75
2022-08-23T11:17:11.852Z,97148.66
2022-08-23T11:19:47.871Z,97158.06
2022-08-23T11:22:18.714Z,97154.28
2022-08-23T11:24:50.078Z,97159.38
2022-08-23T11:27:30.176Z,97164.44
2022-08-23T11:29:56.623Z,97153.91
2022-08-23T11:32:29.857Z,97158.75
2022-08-23T11:35:00.271Z,97159.97
2022-08-23T11:37:30.241Z,97167.28
2022-08-23T11:39:57.570Z,97160.22
2022-08-23T11:42:25.310Z,97169.13
2022-08-23T11:44:51.742Z,97168.16
2022-08-23T11:47:26.442Z,97164.50
2022-08-23T11:50:02.962Z,97157.72
2022-08-23T11:52:51.809Z,97159.44
2022-08-23T11:55:18.213Z,97154.03
2022-08-23T11:57:54.492Z,97153.38
2022-08-23T12:00:29.392Z,97160.38
2022-08-23T12:03:02.083Z,97161.00
2022-08-23T12:05:42.243Z,97160.84
2022-08-23T12:08:08.665Z,97153.97
2022-08-23T12:10:38.114Z,97145.59
2022-08-23T12:13:24.500Z,97149.97
2022-08-23T12:16:16.422Z,97148.13
2022-08-23T12:18:47.549Z,97143.09
2022-08-23T12:21:26.521Z,97136.09
2022-08-23T12:24:02.625Z,97135.72
2022-08-23T12:26:31.299Z,97151.78
2022-08-23T12:29:00.183Z,97135.84
2022-08-23T12:31:34.362Z,97153.66
2022-08-23T12:34:19.513Z,97144.00
2022-08-23T12:36:54.454Z,97142.16
2022-08-23T12:39:23.870Z,97138.31
2022-08-23T12:41:52.371Z,97150.78
2022-08-23T12:44:19.628Z,97134.03
2022-08-23T12:46:46.945Z,97136.63
2022-08-23T12:49:28.637Z,97144.94
2022-08-23T12:51:56.978Z,97144.09
2022-08-23T12:54:24.754Z,97151.44
2022-08-23T12:56:52.176Z,97154.41
2022-08-23T12:59:51.174Z,97156.78
2022-08-23T13:02:24.072Z,97143.13
2022-08-23T13:04:50.561Z,97145.19
2022-08-23T13:07:18.603Z,97146.66
2022-08-23T13:09:45.512Z,97152.53
2022-08-23T13:12:20.387Z,97143.16
2022-08-23T13:14:47.963Z,97151.56
2022-08-23T13:17:17.603Z,97151.34
2022-08-23T13:19:44.450Z,97153.81
2022-08-23T13:22:10.847Z,97152.41
2022-08-23T13:24:39.228Z,97155.22
2022-08-23T13:27:20.150Z,97142.09
2022-08-23T13:29:49.696Z,97137.88
2022-08-23T13:32:29.850Z,97141.69
2022-08-23T13:35:16.208Z,97142.78
2022-08-23T13:37:45.281Z,97136.69
2022-08-23T13:40:14.125Z,97134.63
2022-08-23T13:42:52.920Z,97128.34
2022-08-23T13:45:21.771Z,97138.38
2022-08-23T13:47:50.680Z,97135.47
2022-08-23T13:50:37.586Z,97138.41
2022-08-23T13:53:14.748Z,97141.44
2022-08-23T13:55:46.751Z,97129.44
2022-08-23T13:58:14.437Z,97131.47
2022-08-23T14:00:54.785Z,97132.97
2022-08-23T14:03:21.670Z,97132.16
2022-08-23T14:05:48.091Z,97140.16
2022-08-23T14:08:15.138Z,97128.63
2022-08-23T14:10:41.625Z,97149.66
2022-08-23T14:13:08.706Z,97139.22
2022-08-23T14:18:21.988Z,97128.69
2022-08-23T14:20:51.243Z,97138.91
2022-08-23T14:23:18.944Z,97140.28
2022-08-23T14:25:45.952Z,97134.63
2022-08-23T14:28:13.640Z,97137.28
2022-08-23T14:30:40.310Z,97131.50
2022-08-23T14:33:06.919Z,97127.53
2022-08-23T14:35:33.327Z,97126.09
2022-08-23T14:38:03.274Z,97121.34
2022-08-23T14:40:30.785Z,97127.81
2022-08-23T14:42:57.821Z,97134.41
2022-08-23T14:45:24.502Z,97135.19
2022-08-23T14:47:50.915Z,97129.13
2022-08-23T14:50:17.385Z,97139.69
2022-08-23T14:52:45.783Z,97140.34
2022-08-23T14:55:12.345Z,97133.44
2022-08-23T14:57:39.895Z,97134.00
2022-08-23T15:00:07.261Z,97134.84
2022-08-23T15:02:36.398Z,97134.63
2022-08-23T15:05:03.116Z,97136.88
2022-08-23T15:07:29.519Z,97137.94
2022-08-23T15:09:56.023Z,97138.28
2022-08-23T15:15:10.803Z,97144.09
2022-08-23T15:17:42.071Z,97142.44
2022-08-23T15:20:08.660Z,97143.50
2022-08-23T15:22:44.507Z,97141.69
2022-08-23T15:25:12.199Z,97142.44
2022-08-23T15:27:38.631Z,97133.91
2022-08-23T15:30:05.391Z,97145.44
2022-08-23T15:32:32.513Z,97149.34
2022-08-23T15:34:59.687Z,97143.75
2022-08-23T15:37:26.177Z,97140.56
2022-08-23T15:39:52.718Z,97142.47
2022-08-23T15:42:20.154Z,97142.47
2022-08-23T15:44:47.428Z,97141.53
2022-08-23T15:47:14.938Z,97135.50
2022-08-23T15:49:41.382Z,97137.44
2022-08-23T15:52:07.816Z,97130.00
2022-08-23T15:54:34.294Z,97138.38
2022-08-23T15:57:00.733Z,97133.38
2022-08-23T15:59:27.198Z,97135.59
2022-08-23T16:01:53.717Z,97128.56
2022-08-23T16:04:20.176Z,97133.28
2022-08-23T16:06:46.910Z,97134.50
2022-08-23T16:09:17.775Z,97136.72
2022-08-23T16:11:44.238Z,97136.41
2022-08-23T16:14:10.772Z,97132.13
2022-08-23T16:16:38.049Z,97128.03
2022-08-23T16:19:04.936Z,97139.28
2022-08-23T16:21:31.474Z,97140.34
2022-08-23T16:23:58.211Z,97139.66
2022-08-23T16:26:34.799Z,97136.44
2022-08-23T16:29:02.065Z,97132.00
2022-08-23T16:31:39.047Z,97132.47
2022-08-23T16:34:07.915Z,97123.97
2022-08-23T16:36:34.548Z,97132.44
2022-08-23T16:39:01.068Z,97123.91
2022-08-23T16:41:27.518Z,97132.69
2022-08-23T16:43:53.955Z,97128.19
2022-08-23T16:46:20.556Z,97138.06
2022-08-23T16:48:47.027Z,97136.94
2022-08-23T16:51:13.552Z,97135.00
2022-08-23T16:53:40.317Z,97131.59
2022-08-23T16:56:07.023Z,97139.84
2022-08-23T16:58:33.678Z,97137.06
2022-08-23T17:01:00.236Z,97136.97
2022-08-23T17:03:27.237Z,97140.03
2022-08-23T17:05:53.799Z,97142.34
2022-08-23T17:08:20.235Z,97146.31
2022-08-23T17:10:47.780Z,97146.09
2022-08-23T17:13:14.295Z,97138.84
2022-08-23T17:15:40.900Z,97145.75
2022-08-23T17:18:07.703Z,97150.03
2022-08-23T17:20:35.701Z,97145.72
2022-08-23T17:23:05.539Z,97140.59
2022-08-23T17:25:32.417Z,97143.81
2022-08-23T17:27:58.901Z,97147.28
2022-08-23T17:30:25.696Z,97146.09
2022-08-23T17:32:52.165Z,97151.91
2022-08-23T17:35:19.838Z,97161.97
2022-08-23T17:37:46.734Z,97153.16
2022-08-23T17:40:15.007Z,97153.88
2022-08-23T17:42:41.901Z,97154.78
2022-08-23T17:45:09.115Z,97153.59
2022-08-23T17:47:35.563Z,97165.81
2022-08-23T17:50:03.787Z,97164.53
2022-08-23T17:52:30.389Z,97177.13
2022-08-23T17:54:57.078Z,97168.00
2022-08-23T17:57:23.646Z,97173.53
2022-08-23T17:59:50.068Z,97174.72
2022-08-23T18:02:16.502Z,97169.94
2022-08-23T18:04:42.988Z,97181.94
2022-08-23T18:07:09.545Z,97172.53
2022-08-23T18:09:38.988Z,97188.81
2022-08-23T18:12:10.315Z,97182.16
2022-08-23T18:14:36.749Z,97185.44
2022-08-23T18:17:03.202Z,97196.81
2022-08-23T18:19:29.683Z,97189.84
2022-08-23T18:21:58.595Z,97195.78
2022-08-23T18:24:28.319Z,97196.31
2022-08-23T18:27:13.554Z,97197.91
2022-08-23T18:29:39.995Z,97208.16
2022-08-23T18:32:10.615Z,97213.00
2022-08-23T18:34:37.515Z,97208.66
2022-08-23T18:37:04.095Z,97213.41
2022-08-23T18:39:32.262Z,97221.44
2022-08-23T18:42:02.928Z,97219.47
2022-08-23T18:44:29.755Z,97231.31
2022-08-23T18:46:56.286Z,97225.03
2022-08-23T18:49:22.746Z,97226.09
2022-08-23T18:51:49.227Z,97234.69
2022-08-23T18:54:15.918Z,97233.59
2022-08-23T18:56:42.377Z,97248.81
2022-08-23T18:59:08.813Z,97244.69
2022-08-23T19:01:36.497Z,97251.91
2022-08-23T19:04:04.397Z,97252.34
2022-08-23T19:06:30.903Z,97251.00
2022-08-23T19:08:57.560Z,97250.16
2022-08-23T19:11:24.473Z,97256.78
2022-08-23T19:13:51.150Z,97262.66
2022-08-23T19:16:18.168Z,97268.97
2022-08-23T19:18:45.084Z,97274.06
2022-08-23T19:21:11.724Z,97276.41
2022-08-23T19:23:38.271Z,97278.19
2022-08-23T19:26:08.014Z,97277.88
2022-08-23T19:28:36.421Z,97285.88
2022-08-23T19:31:02.866Z,97281.06
2022-08-23T19:33:30.330Z,97286.41
2022-08-23T19:35:58.137Z,97294.53
2022-08-23T19:38:25.477Z,97293.72
2022-08-23T19:40:51.905Z,97291.03
2022-08-23T19:43:18.378Z,97294.16
2022-08-23T19:45:44.838Z,97297.84
2022-08-23T19:48:11.558Z,97288.13
2022-08-23T19:50:39.616Z,97292.78
2022-08-23T19:53:06.530Z,97291.09
2022-08-23T19:55:33.103Z,97292.97
2022-08-23T19:57:59.674Z,97296.47
2022-08-23T20:00:26.584Z,97294.75
2022-08-23T20:02:53.193Z,97301.78
2022-08-23T20:05:20.521Z,97299.97
2022-08-23T20:07:47.311Z,97303.91
2022-08-23T20:10:14.326Z,97306.03
2022-08-23T20:12:41.801Z,97315.53
2022-08-23T20:15:11.918Z,97316.34
2022-08-23T20:17:39.376Z,97310.72
2022-08-23T20:20:06.536Z,97320.81
2022-08-23T20:22:51.650Z,97326.31
2022-08-23T20:25:18.098Z,97321.44
2022-08-23T20:27:45.107Z,97322.91
2022-08-23T20:30:12.188Z,97326.41
2022-08-23T20:32:38.867Z,97327.38
2022-08-23T20:35:06.729Z,97330.22
2022-08-23T20:37:33.290Z,97332.88
2022-08-23T20:39:59.901Z,97326.97
2022-08-23T20:42:26.507Z,97331.88
2022-08-23T20:44:52.955Z,97330.00
2022-08-23T20:47:19.486Z,97331.78
2022-08-23T20:49:45.991Z,97328.53
2022-08-23T20:52:12.534Z,97326.81
2022-08-23T20:54:39.037Z,97329.41
2022-08-23T20:57:05.531Z,97325.00
2022-08-23T20:59:32.003Z,97321.75
2022-08-23T21:01:59.190Z,97323.47
2022-08-23T21:04:29.979Z,97328.81
2022-08-23T21:06:56.575Z,97325.22
2022-08-23T21:09:24.606Z,97328.00
2022-08-23T21:11:55.425Z,97333.50
2022-08-23T21:14:22.586Z,97331.78
2022-08-23T21:16:49.059Z,97332.72
2022-08-23T21:19:15.628Z,97343.50
2022-08-23T21:21:42.371Z,97328.13
2022-08-23T21:24:09.384Z,97338.75
2022-08-23T21:26:36.199Z,97337.50
2022-08-23T21:29:03.000Z,97333.78
2022-08-23T21:31:29.512Z,97336.94
2022-08-23T21:33:55.989Z,97335.31
2022-08-23T21:36:22.857Z,97334.81
2022-08-23T21:38:49.775Z,97328.66
2022-08-23T21:41:27.268Z,97334.00
2022-08-23T21:43:53.721Z,97335.66
2022-08-23T21:46:20.231Z,97333.69
2022-08-23T21:48:46.669Z,97339.13
2022-08-23T21:51:13.108Z,97340.44
2022-08-23T21:53:39.563Z,97340.91
2022-08-23T21:56:06.026Z,97335.19
2022-08-23T21:58:32.479Z,97336.34
2022-08-23T22:00:59.018Z,97341.56
2022-08-23T22:03:25.475Z,97338.19
2022-08-23T22:05:51.947Z,97326.78
2022-08-23T22:08:18.438Z,97335.16
2022-08-23T22:10:56.648Z,97333.88
2022-08-23T22:13:25.789Z,97346.66
2022-08-23T22:15:52.286Z,97340.13
2022-08-23T22:18:18.811Z,97337.94
2022-08-23T22:20:45.263Z,97337.13
2022-08-23T22:23:11.699Z,97338.75
2022-08-23T22:25:38.132Z,97348.06
2022-08-23T22:28:04.589Z,97343.41
2022-08-23T22:30:32.119Z,97349.25
2022-08-23T22:32:58.572Z,97357.16
2022-08-23T22:35:25.082Z,97350.16
2022-08-23T22:38:12.389Z,97351.69
2022-08-23T22:40:37.979Z,97349.50
2022-08-23T22:43:04.414Z,97344.47
2022-08-23T22:45:30.892Z,97347.50
2022-08-23T22:47:57.467Z,97352.03
2022-08-23T22:50:23.964Z,97346.22
2022-08-23T22:52:50.926Z,97342.94
2022-08-23T22:55:17.545Z,97340.97
2022-08-23T22:57:44.066Z,97351.78
2022-08-23T23:00:11.271Z,97352.16
2022-08-23T23:02:38.913Z,97353.31
2022-08-23T23:05:07.391Z,97350.03
2022-08-23T23:07:52.515Z,97347.28
2022-08-23T23:10:19.085Z,97351.81
2022-08-23T23:12:45.540Z,97348.31
2022-08-23T23:15:12.206Z,97350.31
2022-08-23T23:17:38.661Z,97351.38
2022-08-23T23:20:23.885Z,97349.97
2022-08-23T23:22:51.790Z,97355.53
2022-08-23T23:25:18.374Z,97359.00
2022-08-23T23:27:45.158Z,97347.75
2022-08-23T23:30:11.888Z,97348.78
2022-08-23T23:32:38.340Z,97349.38
2022-08-23T23:35:06.616Z,97349.81
2022-08-23T23:37:33.056Z,97352.50
2022-08-23T23:42:39.937Z,97356.88
2022-08-23T23:45:06.740Z,97357.75
2022-08-23T23:47:33.167Z,97358.19
2022-08-23T23:49:59.949Z,97362.03
2022-08-23T23:52:26.434Z,97364.69
2022-08-23T23:54:52.896Z,97360.97
2022-08-23T23:57:19.345Z,97362.72
2022-08-23T23:59:45.785Z,97363.53
